Time;durP1;ratioP1;P1;durP2;ratioP2;P2;SDS_P1;SDS_P2;PMS_P1;PMS_P2;Temp;Humidity;BMP_temperature;BMP_pressure;BME280_temperature;BME280_humidity;BME280_pressure;Samples;Min_cycle;Max_cycle;Signal;HPM_P1;HPM_P2
2023/01/17 00:01:09;;;;;;;;;;;;;;;;;;6143762;23;19916;-94
2023/01/17 00:11:49;;;;;;;;;;;;;;;;;;6168716;23;19928;-93
2023/01/17 00:14:15;;;;;;;;;;;;;;;;;;6143917;23;19920;-96
2023/01/17 00:16:41;;;;;;;;;;;;;;;;;;6144081;23;19917;-95
2023/01/17 01:34:09;;;;;;;;;;;;;;;;;;6186176;23;19994;-94
2023/01/17 01:36:35;;;;;;;;;;;;;;;;;;6161546;23;19920;-95
2023/01/17 01:39:01;;;;;;;;;;;;;;;;;;6160812;23;19920;-94
2023/01/17 01:41:27;;;;;;;;;;;;;;;;;;6161092;23;19916;-95
2023/01/17 01:43:53;;;;;;;;;;;;;;;;;;6161397;23;19921;-95
2023/01/17 01:46:19;;;;;;;;;;;;;;;;;;6161238;23;20323;-94
2023/01/17 01:48:45;;;;;;;;;;;;;;;;;;6161401;23;20595;-96
2023/01/17 01:51:11;;;;;;;;;;;;;;;;;;6160783;23;19987;-95
2023/01/17 01:53:36;;;;;;;;;;;;;;;;;;6161170;23;19990;-94
2023/01/17 01:56:02;;;;;;;;;;;;;;;;;;6161047;23;19944;-94
2023/01/17 01:58:28;;;;;;;;;;;;;;;;;;6160684;23;19952;-94
2023/01/17 02:00:54;;;;;;;;;;;;;;;;;;6160688;23;19924;-93
2023/01/17 02:03:20;;;;;;;;;;;;;;;;;;6161054;23;19920;-93
2023/01/17 02:05:46;;;;;;;;;;;;;;;;;;6160896;23;19920;-92
2023/01/17 02:08:12;;;;;;;;;;;;;;;;;;6160700;23;19916;-93
2023/01/17 02:10:38;;;;;;;;;;;;;;;;;;6160264;23;19916;-93
2023/01/17 02:13:04;;;;;;;;;;;;;;;;;;6160772;23;20257;-93
2023/01/17 02:15:30;;;;;;;;;;;;;;;;;;6160375;23;20003;-92
2023/01/17 02:17:55;;;;;;;;;;;;;;;;;;6160795;23;19916;-92
2023/01/17 02:20:21;;;;;;;;;;;;;;;;;;6185029;23;19917;-93
2023/01/17 02:22:47;;;;;;;;;;;;;;;;;;6160601;23;19920;-92
2023/01/17 02:25:13;;;;;;;;;;;;;;;;;;6185460;23;20353;-92
2023/01/17 02:27:39;;;;;;;;;;;;;;;;;;6185589;23;19923;-93
2023/01/17 02:30:05;;;;;;;;;;;;;;;;;;6185069;23;19923;-93
2023/01/17 02:32:31;;;;;;;;;;;;;;;;;;6160784;23;20357;-92
2023/01/17 02:34:57;;;;;;;;;;;;;;;;;;6159832;23;20335;-92
2023/01/17 02:37:23;;;;;;;;;;;;;;;;;;6161295;23;20224;-92
2023/01/17 02:39:49;;;;;;;;;;;;;;;;;;6160128;23;19955;-93
2023/01/17 02:42:15;;;;;;;;;;;;;;;;;;6160722;23;19954;-93
2023/01/17 02:44:41;;;;;;;;;;;;;;;;;;6160679;23;19916;-94
2023/01/17 02:47:07;;;;;;;;;;;;;;;;;;6160761;23;19916;-94
2023/01/17 02:49:33;;;;;;;;;;;;;;;;;;6160065;23;19991;-92
2023/01/17 02:51:59;;;;;;;;;;;;;;;;;;6160605;23;19987;-94
2023/01/17 02:54:25;;;;;;;;;;;;;;;;;;6160612;23;19955;-96
2023/01/17 02:56:51;;;;;;;;;;;;;;;;;;6160673;23;19955;-94
2023/01/17 02:59:16;;;;;;;;;;;;;;;;;;6184871;23;19916;-95
2023/01/17 03:01:42;;;;;;;;;;;;;;;;;;6160555;23;19943;-94
2023/01/17 03:04:08;;;;;;;;;;;;;;;;;;6160646;23;19996;-93
2023/01/17 03:06:34;;;;;;;;;;;;;;;;;;6160421;23;19951;-93
2023/01/17 03:09:00;;;;;;;;;;;;;;;;;;6159988;23;19920;-93
2023/01/17 03:11:26;;;;;;;;;;;;;;;;;;6185233;23;19916;-93
2023/01/17 03:13:52;;;;;;;;;;;;;;;;;;6160385;23;19916;-93
2023/01/17 03:16:18;;;;;;;;;;;;;;;;;;6160451;23;19917;-92
2023/01/17 03:18:44;;;;;;;;;;;;;;;;;;6185136;23;19966;-94
2023/01/17 03:21:10;;;;;;;;;;;;;;;;;;6159944;23;19920;-94
2023/01/17 03:23:36;;;;;;;;;;;;;;;;;;6160365;23;19921;-93
2023/01/17 03:26:02;;;;;;;;;;;;;;;;;;6160582;23;19917;-94
2023/01/17 03:28:28;;;;;;;;;;;;;;;;;;6185624;23;19949;-93
2023/01/17 03:30:53;;;;;;;;;;;;;;;;;;6159797;23;19920;-93
2023/01/17 03:33:19;;;;;;;;;;;;;;;;;;6160505;23;20346;-94
2023/01/17 03:35:46;;;;;;;;;;;;;;;;;;6160260;23;19999;-93
2023/01/17 03:38:12;;;;;;;;;;;;;;;;;;6185217;23;20476;-94
2023/01/17 03:40:38;;;;;;;;;;;;;;;;;;6160077;23;19916;-94
2023/01/17 03:43:04;;;;;;;;;;;;;;;;;;6160235;23;19916;-93
2023/01/17 03:45:30;;;;;;;;;;;;;;;;;;6160003;23;19987;-95
2023/01/17 03:47:56;;;;;;;;;;;;;;;;;;6160363;23;19991;-94
2023/01/17 03:50:22;;;;;;;;;;;;;;;;;;6159844;23;19916;-94
2023/01/17 03:52:48;;;;;;;;;;;;;;;;;;6160250;23;19963;-93
2023/01/17 03:55:14;;;;;;;;;;;;;;;;;;6185032;23;20349;-93
2023/01/17 03:57:40;;;;;;;;;;;;;;;;;;6160285;23;19916;-94
2023/01/17 04:00:06;;;;;;;;;;;;;;;;;;6159797;23;19916;-93
2023/01/17 04:02:32;;;;;;;;;;;;;;;;;;6160335;23;20354;-94
2023/01/17 04:04:57;;;;;;;;;;;;;;;;;;6160270;23;19916;-93
2023/01/17 04:07:23;;;;;;;;;;;;;;;;;;6160270;23;19916;-94
2023/01/17 04:09:49;;;;;;;;;;;;;;;;;;6159814;23;20331;-94
2023/01/17 04:12:15;;;;;;;;;;;;;;;;;;6159944;23;19916;-93
2023/01/17 04:14:41;;;;;;;;;;;;;;;;;;6159961;23;19924;-93
2023/01/17 04:17:07;;;;;;;;;;;;;;;;;;6160085;23;19916;-93
2023/01/17 04:19:33;;;;;;;;;;;;;;;;;;6159522;23;19939;-94
2023/01/17 04:21:59;;;;;;;;;;;;;;;;;;6161259;23;19923;-94
2023/01/17 04:24:25;;;;;;;;;;;;;;;;;;6162086;23;19924;-94
2023/01/17 04:26:51;;;;;;;;;;;;;;;;;;6161924;23;19920;-94
2023/01/17 04:29:17;;;;;;;;;;;;;;;;;;6161148;23;19996;-93
2023/01/17 04:31:42;;;;;;;;;;;;;;;;;;6161919;23;19939;-94
2023/01/17 04:34:08;;;;;;;;;;;;;;;;;;6161766;23;20322;-94
2023/01/17 04:36:34;;;;;;;;;;;;;;;;;;6161991;23;20330;-94
2023/01/17 04:39:00;;;;;;;;;;;;;;;;;;6161717;23;19991;-95
2023/01/17 04:41:26;;;;;;;;;;;;;;;;;;6161740;23;20011;-94
2023/01/17 04:43:52;;;;;;;;;;;;;;;;;;6162420;23;20441;-95
2023/01/17 04:46:18;;;;;;;;;;;;;;;;;;6161898;23;19939;-94
2023/01/17 04:48:44;;;;;;;;;;;;;;;;;;6186605;23;19916;-95
2023/01/17 04:51:10;;;;;;;;;;;;;;;;;;6161462;23;20298;-93
2023/01/17 04:53:36;;;;;;;;;;;;;;;;;;6161964;23;19917;-95
2023/01/17 04:56:02;;;;;;;;;;;;;;;;;;6161729;23;19921;-95
2023/01/17 04:58:28;;;;;;;;;;;;;;;;;;6161869;23;19920;-95
2023/01/17 05:00:54;;;;;;;;;;;;;;;;;;6185909;23;20520;-95
2023/01/17 05:03:20;;;;;;;;;;;;;;;;;;6159147;23;19978;-94
2023/01/17 05:05:46;;;;;;;;;;;;;;;;;;6185560;23;19923;-95
2023/01/17 05:08:12;;;;;;;;;;;;;;;;;;6161060;23;19987;-94
2023/01/17 05:10:37;;;;;;;;;;;;;;;;;;6160232;23;19952;-94
2023/01/17 05:13:03;;;;;;;;;;;;;;;;;;6161092;23;19916;-94
2023/01/17 05:15:29;;;;;;;;;;;;;;;;;;6160603;23;19943;-94
2023/01/17 05:17:55;;;;;;;;;;;;;;;;;;6160858;23;19923;-95
2023/01/17 05:20:21;;;;;;;;;;;;;;;;;;6160268;23;20348;-94
2023/01/17 05:22:47;;;;;;;;;;;;;;;;;;6160352;23;19920;-93
2023/01/17 05:25:13;;;;;;;;;;;;;;;;;;6160855;23;19920;-95
2023/01/17 05:27:39;;;;;;;;;;;;;;;;;;6160554;23;19916;-95
2023/01/17 05:30:05;;;;;;;;;;;;;;;;;;6159916;23;20363;-94
2023/01/17 05:32:31;;;;;;;;;;;;;;;;;;6160577;23;19924;-95
2023/01/17 05:35:11;;;;;;;;;;;;;;;;;;6160603;23;19920;-95
2023/01/17 05:37:37;;;;;;;;;;;;;;;;;;6160905;23;19917;-94
2023/01/17 05:40:04;;;;;;;;;;;;;;;;;;6160085;23;20228;-95
2023/01/17 05:42:30;;;;;;;;;;;;;;;;;;6160370;23;19927;-94
2023/01/17 05:44:56;;;;;;;;;;;;;;;;;;6160286;23;19917;-95
2023/01/17 05:47:22;;;;;;;;;;;;;;;;;;6160383;23;20254;-95
2023/01/17 05:49:48;;;;;;;;;;;;;;;;;;6160020;23;19959;-94
2023/01/17 05:52:14;;;;;;;;;;;;;;;;;;6160382;23;19952;-93
2023/01/17 05:54:40;;;;;;;;;;;;;;;;;;6160099;23;19944;-94
2023/01/17 05:57:06;;;;;;;;;;;;;;;;;;6160247;23;19922;-92
2023/01/17 05:59:32;;;;;;;;;;;;;;;;;;6159624;23;19916;-94
2023/01/17 06:01:58;;;;;;;;;;;;;;;;;;6160523;23;19917;-94
2023/01/17 06:04:24;;;;;;;;;;;;;;;;;;6185126;23;19943;-91
2023/01/17 06:06:50;;;;;;;;;;;;;;;;;;6160447;23;19916;-93
2023/01/17 06:09:16;;;;;;;;;;;;;;;;;;6184598;23;20298;-94
2023/01/17 06:11:42;;;;;;;;;;;;;;;;;;6160175;23;19985;-94
2023/01/17 06:14:08;;;;;;;;;;;;;;;;;;6159979;23;19967;-93
2023/01/17 06:16:34;;;;;;;;;;;;;;;;;;6160130;23;19982;-94
2023/01/17 06:19:00;;;;;;;;;;;;;;;;;;6160120;23;20361;-94
2023/01/17 06:21:25;;;;;;;;;;;;;;;;;;6160006;23;19916;-94
2023/01/17 06:23:51;;;;;;;;;;;;;;;;;;6160481;23;19916;-95
2023/01/17 06:26:18;;;;;;;;;;;;;;;;;;6160149;23;19916;-94
2023/01/17 06:28:44;;;;;;;;;;;;;;;;;;6159952;23;19924;-93
2023/01/17 06:31:10;;;;;;;;;;;;;;;;;;6159617;23;19939;-94
2023/01/17 06:33:36;;;;;;;;;;;;;;;;;;6159928;23;19917;-95
2023/01/17 06:36:02;;;;;;;;;;;;;;;;;;6160222;23;19999;-95
2023/01/17 06:38:28;;;;;;;;;;;;;;;;;;6160429;23;19951;-94
2023/01/17 06:40:55;;;;;;;;;;;;;;;;;;6159743;23;19916;-94
2023/01/17 06:43:21;;;;;;;;;;;;;;;;;;6159989;23;19966;-94
2023/01/17 06:45:47;;;;;;;;;;;;;;;;;;6159890;23;19951;-94
2023/01/17 06:48:13;;;;;;;;;;;;;;;;;;6160132;23;19916;-94
2023/01/17 06:50:39;;;;;;;;;;;;;;;;;;6159354;23;19916;-94
2023/01/17 06:53:05;;;;;;;;;;;;;;;;;;6160029;23;19916;-95
2023/01/17 06:55:32;;;;;;;;;;;;;;;;;;6159655;23;19983;-92
2023/01/17 06:57:58;;;;;;;;;;;;;;;;;;6159958;23;19924;-95
2023/01/17 07:00:24;;;;;;;;;;;;;;;;;;6158958;23;19916;-94
2023/01/17 07:02:50;;;;;;;;;;;;;;;;;;6160249;23;19923;-94
2023/01/17 07:05:16;;;;;;;;;;;;;;;;;;6159934;23;20297;-94
2023/01/17 07:07:42;;;;;;;;;;;;;;;;;;6159883;23;20353;-94
2023/01/17 07:10:08;;;;;;;;;;;;;;;;;;6159401;23;19989;-94
2023/01/17 07:12:34;;;;;;;;;;;;;;;;;;6159896;23;19971;-94
2023/01/17 07:14:59;;;;;;;;;;;;;;;;;;6159883;23;19920;-95
2023/01/17 07:17:25;;;;;;;;;;;;;;;;;;6184569;23;20254;-94
2023/01/17 07:19:51;;;;;;;;;;;;;;;;;;6159772;23;19916;-94
2023/01/17 07:22:17;;;;;;;;;;;;;;;;;;6159537;23;19923;-94
2023/01/17 07:24:43;;;;;;;;;;;;;;;;;;6159486;23;19922;-94
2023/01/17 07:27:09;;;;;;;;;;;;;;;;;;6159642;23;19971;-94
2023/01/17 07:29:35;;;;;;;;;;;;;;;;;;6158949;23;19920;-95
2023/01/17 07:32:02;;;;;;;;;;;;;;;;;;6159762;23;19991;-94
2023/01/17 07:34:28;;;;;;;;;;;;;;;;;;6159219;23;19920;-93
2023/01/17 07:36:53;;;;;;;;;;;;;;;;;;6183760;23;19962;-93
2023/01/17 07:39:19;;;;;;;;;;;;;;;;;;6158658;23;20365;-94
2023/01/17 07:41:46;;;;;;;;;;;;;;;;;;6158891;23;20246;-94
2023/01/17 07:44:12;;;;;;;;;;;;;;;;;;6159228;23;19923;-94
2023/01/17 07:46:48;;;;;;;;;;;;;;;;;;6157750;23;19916;-94
2023/01/17 07:49:14;;;;;;;;;;;;;;;;;;6158597;23;19970;-94
2023/01/17 07:51:39;;;;;;;;;;;;;;;;;;6158421;23;19983;-95
2023/01/17 07:54:05;;;;;;;;;;;;;;;;;;6158898;23;19991;-94
2023/01/17 07:56:31;;;;;;;;;;;;;;;;;;6159934;23;20382;-94
2023/01/17 07:58:57;;;;;;;;;;;;;;;;;;6161205;23;19916;-93
2023/01/17 08:01:24;;;;;;;;;;;;;;;;;;6160208;23;19916;-91
2023/01/17 08:03:53;;;;;;;;;;;;;;;;;;6160330;23;19917;-91
2023/01/17 08:06:19;;;;;;;;;;;;;;;;;;6159846;23;19916;-90
2023/01/17 08:08:45;;;;;;;;;;;;;;;;;;6184707;23;19916;-89
2023/01/17 08:11:11;;;;;;;;;;;;;;;;;;6160109;23;20557;-94
2023/01/17 08:13:37;;;;;;;;;;;;;;;;;;6160743;23;19920;-92
2023/01/17 08:16:03;;;;;;;;;;;;;;;;;;6160806;23;19964;-93
2023/01/17 08:18:29;;;;;;;;;;;;;;;;;;6160671;23;19947;-95
2023/01/17 08:20:55;;;;;;;;;;;;;;;;;;6160003;23;20311;-93
2023/01/17 08:23:20;;;;;;;;;;;;;;;;;;6185171;23;19951;-93
2023/01/17 08:25:46;;;;;;;;;;;;;;;;;;6160688;23;19916;-93
2023/01/17 08:28:12;;;;;;;;;;;;;;;;;;6160102;23;19966;-93
2023/01/17 08:30:38;;;;;;;;;;;;;;;;;;6184735;23;19943;-92
2023/01/17 08:33:04;;;;;;;;;;;;;;;;;;6160357;23;20386;-90
2023/01/17 08:35:30;;;;;;;;;;;;;;;;;;6159708;23;20286;-93
2023/01/17 08:37:58;;;;;;;;;;;;;;;;;;6160238;23;19924;-92
2023/01/17 08:40:24;;;;;;;;;;;;;;;;;;6159709;23;20345;-91
2023/01/17 08:42:50;;;;;;;;;;;;;;;;;;6159934;23;19916;-92
2023/01/17 08:45:16;;;;;;;;;;;;;;;;;;6160552;23;19987;-88
2023/01/17 08:50:36;;;;;;;;;;;;;;;;;;6158816;23;20231;-89
2023/01/17 08:53:02;;;;;;;;;;;;;;;;;;6134685;23;19923;-90
2023/01/17 08:55:27;;;;;;;;;;;;;;;;;;6159175;23;19927;-89
2023/01/17 08:57:53;;;;;;;;;;;;;;;;;;6159378;23;19943;-89
2023/01/17 09:00:19;;;;;;;;;;;;;;;;;;6134028;23;20258;-92
2023/01/17 09:02:45;;;;;;;;;;;;;;;;;;6134955;23;19986;-88
2023/01/17 09:05:12;;;;;;;;;;;;;;;;;;6134603;23;19920;-88
2023/01/17 09:07:38;;;;;;;;;;;;;;;;;;6134211;23;19971;-89
2023/01/17 09:10:04;;;;;;;;;;;;;;;;;;6134009;23;20278;-89
2023/01/17 09:12:30;;;;;;;;;;;;;;;;;;6134391;23;19920;-91
2023/01/17 09:14:56;;;;;;;;;;;;;;;;;;6134733;23;19957;-92
2023/01/17 09:17:21;;;;;;;;;;;;;;;;;;6134995;23;20326;-93
2023/01/17 09:19:47;;;;;;;;;;;;;;;;;;6134620;23;20361;-92
2023/01/17 09:22:13;;;;;;;;;;;;;;;;;;6132312;23;19990;-93
2023/01/17 09:24:40;;;;;;;;;;;;;;;;;;6136218;23;19916;-96
2023/01/17 09:27:06;;;;;;;;;;;;;;;;;;6162343;23;19917;-94
2023/01/17 09:29:32;;;;;;;;;;;;;;;;;;6135430;23;19916;-92
2023/01/17 09:31:59;;;;;;;;;;;;;;;;;;6134685;23;20343;-94
2023/01/17 09:34:24;;;;;;;;;;;;;;;;;;6134632;23;20330;-92
2023/01/17 09:36:50;;;;;;;;;;;;;;;;;;6134754;23;19995;-92
2023/01/17 09:39:16;;;;;;;;;;;;;;;;;;6133789;23;19987;-90
2023/01/17 09:41:42;;;;;;;;;;;;;;;;;;6134646;23;20271;-92
2023/01/17 09:44:08;;;;;;;;;;;;;;;;;;6159506;23;20255;-91
2023/01/17 09:46:34;;;;;;;;;;;;;;;;;;6148399;23;19939;-92
2023/01/17 09:49:00;;;;;;;;;;;;;;;;;;6159060;23;19923;-92
2023/01/17 09:51:26;;;;;;;;;;;;;;;;;;6184384;23;19979;-90
2023/01/17 09:53:52;;;;;;;;;;;;;;;;;;6158652;23;19916;-89
2023/01/17 09:56:18;;;;;;;;;;;;;;;;;;6158662;23;19995;-90
2023/01/17 09:58:44;;;;;;;;;;;;;;;;;;6183516;23;20249;-89
2023/01/17 10:01:11;;;;;;;;;;;;;;;;;;6157964;23;19916;-89
2023/01/17 10:03:36;;;;;;;;;;;;;;;;;;6159122;23;20335;-93
2023/01/17 10:06:02;;;;;;;;;;;;;;;;;;6159429;23;20027;-92
2023/01/17 10:08:28;;;;;;;;;;;;;;;;;;6184728;23;19944;-91
2023/01/17 10:10:56;;;;;;;;;;;;;;;;;;6162092;23;19923;-89
2023/01/17 10:13:25;;;;;;;;;;;;;;;;;;6159501;23;19916;-89
2023/01/17 10:15:51;;;;;;;;;;;;;;;;;;6183312;23;20279;-90
2023/01/17 10:18:17;;;;;;;;;;;;;;;;;;6183194;23;19916;-90
2023/01/17 10:20:43;;;;;;;;;;;;;;;;;;6158123;23;19920;-91
2023/01/17 10:23:09;;;;;;;;;;;;;;;;;;6158510;23;19916;-90
2023/01/17 10:25:35;;;;;;;;;;;;;;;;;;6158604;23;19920;-90
2023/01/17 10:28:01;;;;;;;;;;;;;;;;;;6158559;23;19991;-89
2023/01/17 10:30:27;;;;;;;;;;;;;;;;;;6182610;23;19991;-90
2023/01/17 10:32:54;;;;;;;;;;;;;;;;;;6183713;23;19980;-91
2023/01/17 10:35:20;;;;;;;;;;;;;;;;;;6159100;23;19927;-92
2023/01/17 10:37:46;;;;;;;;;;;;;;;;;;6158723;23;19916;-92
2023/01/17 10:40:12;;;;;;;;;;;;;;;;;;6158135;23;19986;-92
2023/01/17 10:42:38;;;;;;;;;;;;;;;;;;6159171;23;19916;-92
2023/01/17 10:45:04;;;;;;;;;;;;;;;;;;6159089;23;19921;-91
2023/01/17 10:47:43;;;;;;;;;;;;;;;;;;6134349;23;19970;-93
2023/01/17 10:50:10;;;;;;;;;;;;;;;;;;6133851;23;19995;-95
2023/01/17 10:52:36;;;;;;;;;;;;;;;;;;6161059;23;19916;-93
2023/01/17 10:55:06;;;;;;;;;;;;;;;;;;6134669;23;20359;-94
2023/01/17 10:57:32;;;;;;;;;;;;;;;;;;6134868;23;20016;-89
2023/01/17 10:59:58;;;;;;;;;;;;;;;;;;6133195;23;20346;-90
2023/01/17 11:02:24;;;;;;;;;;;;;;;;;;6133557;23;19947;-91
2023/01/17 11:04:50;;;;;;;;;;;;;;;;;;6134098;23;19955;-92
2023/01/17 11:07:16;;;;;;;;;;;;;;;;;;6134334;23;19983;-92
2023/01/17 11:09:42;;;;;;;;;;;;;;;;;;6133585;23;19920;-92
2023/01/17 11:12:08;;;;;;;;;;;;;;;;;;6133843;23;19966;-92
2023/01/17 11:14:34;;;;;;;;;;;;;;;;;;6133633;23;20003;-89
2023/01/17 11:17:00;;;;;;;;;;;;;;;;;;6134541;23;19916;-92
2023/01/17 11:19:27;;;;;;;;;;;;;;;;;;6133431;23;19920;-91
2023/01/17 11:21:53;;;;;;;;;;;;;;;;;;6159061;23;20018;-92
2023/01/17 11:24:19;;;;;;;;;;;;;;;;;;6159182;23;19923;-92
2023/01/17 11:26:46;;;;;;;;;;;;;;;;;;6134069;23;20335;-91
2023/01/17 11:29:11;;;;;;;;;;;;;;;;;;6157946;23;19970;-91
2023/01/17 11:31:37;;;;;;;;;;;;;;;;;;6133739;23;20326;-92
2023/01/17 11:34:04;;;;;;;;;;;;;;;;;;6133805;23;19917;-92
2023/01/17 11:36:30;;;;;;;;;;;;;;;;;;6158462;23;19916;-92
2023/01/17 11:38:56;;;;;;;;;;;;;;;;;;6133255;23;19963;-92
2023/01/17 11:41:22;;;;;;;;;;;;;;;;;;6133702;23;20258;-91
2023/01/17 11:43:48;;;;;;;;;;;;;;;;;;6133158;23;19948;-91
2023/01/17 11:46:14;;;;;;;;;;;;;;;;;;6142904;23;19916;-92
2023/01/17 11:48:40;;;;;;;;;;;;;;;;;;6182827;23;20224;-92
2023/01/17 11:51:06;;;;;;;;;;;;;;;;;;6182229;23;19962;-92
2023/01/17 11:53:32;;;;;;;;;;;;;;;;;;6157876;23;19965;-92
2023/01/17 11:55:58;;;;;;;;;;;;;;;;;;6157873;23;19928;-91
2023/01/17 11:58:23;;;;;;;;;;;;;;;;;;6182550;23;19928;-92
2023/01/17 12:00:49;;;;;;;;;;;;;;;;;;6157227;23;19917;-92
2023/01/17 12:03:16;;;;;;;;;;;;;;;;;;6158010;23;19995;-92
2023/01/17 12:05:42;;;;;;;;;;;;;;;;;;6157941;23;19927;-92
2023/01/17 12:08:07;;;;;;;;;;;;;;;;;;6157672;23;19920;-92
2023/01/17 12:10:33;;;;;;;;;;;;;;;;;;6157213;23;19916;-92
2023/01/17 12:15:44;;;;;;;;;;;;;;;;;;6182431;23;19996;-91
2023/01/17 12:18:10;;;;;;;;;;;;;;;;;;6157458;23;19993;-94
2023/01/17 12:20:36;;;;;;;;;;;;;;;;;;6158064;23;19967;-92
2023/01/17 12:23:02;;;;;;;;;;;;;;;;;;6158247;23;19992;-91
2023/01/17 12:25:28;;;;;;;;;;;;;;;;;;6158129;23;19992;-93
2023/01/17 12:27:54;;;;;;;;;;;;;;;;;;6158229;23;19920;-93
2023/01/17 12:30:21;;;;;;;;;;;;;;;;;;6156614;23;20255;-92
2023/01/17 12:32:47;;;;;;;;;;;;;;;;;;6158849;23;19924;-93
2023/01/17 12:35:13;;;;;;;;;;;;;;;;;;6158409;23;19920;-92
2023/01/17 12:37:39;;;;;;;;;;;;;;;;;;6158374;23;20242;-90
2023/01/17 12:40:05;;;;;;;;;;;;;;;;;;6183080;23;20039;-91
2023/01/17 12:42:31;;;;;;;;;;;;;;;;;;6158474;23;20002;-89
2023/01/17 12:44:56;;;;;;;;;;;;;;;;;;6159955;23;19916;-94
2023/01/17 12:47:22;;;;;;;;;;;;;;;;;;6160188;23;19920;-92
2023/01/17 12:49:48;;;;;;;;;;;;;;;;;;6159707;23;19971;-93
2023/01/17 12:52:14;;;;;;;;;;;;;;;;;;6160266;23;19924;-93
2023/01/17 12:54:40;;;;;;;;;;;;;;;;;;6159725;23;19924;-94
2023/01/17 12:57:06;;;;;;;;;;;;;;;;;;6159936;23;19926;-93
2023/01/17 12:59:32;;;;;;;;;;;;;;;;;;6159461;23;19987;-91
2023/01/17 13:01:58;;;;;;;;;;;;;;;;;;6184335;23;19952;-91
2023/01/17 13:04:24;;;;;;;;;;;;;;;;;;6184570;23;20377;-90
2023/01/17 13:06:50;;;;;;;;;;;;;;;;;;6159221;23;19916;-91
2023/01/17 13:09:15;;;;;;;;;;;;;;;;;;6159446;23;19920;-93
2023/01/17 13:11:43;;;;;;;;;;;;;;;;;;6163516;23;20361;-96
2023/01/17 13:14:09;;;;;;;;;;;;;;;;;;6161144;23;19916;-91
2023/01/17 13:16:35;;;;;;;;;;;;;;;;;;6159847;23;19916;-90
2023/01/17 13:19:01;;;;;;;;;;;;;;;;;;6184497;23;19923;-94
2023/01/17 13:21:28;;;;;;;;;;;;;;;;;;6159782;23;19949;-90
2023/01/17 13:23:55;;;;;;;;;;;;;;;;;;6159557;23;20373;-91
2023/01/17 13:26:21;;;;;;;;;;;;;;;;;;6159771;23;20138;-94
2023/01/17 13:28:47;;;;;;;;;;;;;;;;;;6160088;23;19916;-94
2023/01/17 13:31:13;;;;;;;;;;;;;;;;;;6160076;23;19983;-95
2023/01/17 13:33:38;;;;;;;;;;;;;;;;;;6159969;23;20295;-91
2023/01/17 13:36:04;;;;;;;;;;;;;;;;;;6159430;23;19999;-91
2023/01/17 13:38:30;;;;;;;;;;;;;;;;;;6184339;23;19983;-92
2023/01/17 13:40:57;;;;;;;;;;;;;;;;;;6159026;23;19948;-93
2023/01/17 13:43:24;;;;;;;;;;;;;;;;;;6159771;23;19920;-93
2023/01/17 13:45:50;;;;;;;;;;;;;;;;;;6159529;23;20254;-94
2023/01/17 13:48:16;;;;;;;;;;;;;;;;;;6160509;23;19923;-93
2023/01/17 13:50:42;;;;;;;;;;;;;;;;;;6160062;23;19920;-91
2023/01/17 13:53:08;;;;;;;;;;;;;;;;;;6159770;23;19917;-93
2023/01/17 13:55:34;;;;;;;;;;;;;;;;;;6159869;23;19924;-94
2023/01/17 13:58:00;;;;;;;;;;;;;;;;;;6161732;23;19976;-91
2023/01/17 14:00:26;;;;;;;;;;;;;;;;;;6159384;23;19920;-92
2023/01/17 14:02:52;;;;;;;;;;;;;;;;;;6159072;23;19924;-92
2023/01/17 14:05:20;;;;;;;;;;;;;;;;;;6159424;23;20430;-92
2023/01/17 14:07:46;;;;;;;;;;;;;;;;;;6159377;23;19923;-91
2023/01/17 14:10:13;;;;;;;;;;;;;;;;;;6158515;23;19916;-90
2023/01/17 14:12:38;;;;;;;;;;;;;;;;;;6159061;23;19924;-91
2023/01/17 14:15:05;;;;;;;;;;;;;;;;;;6158819;23;20243;-93
2023/01/17 14:17:31;;;;;;;;;;;;;;;;;;6159603;23;19916;-91
2023/01/17 14:19:59;;;;;;;;;;;;;;;;;;6183612;23;20020;-95
2023/01/17 14:22:25;;;;;;;;;;;;;;;;;;6159635;23;19923;-92
2023/01/17 14:24:51;;;;;;;;;;;;;;;;;;6159094;23;19920;-96
2023/01/17 14:27:17;;;;;;;;;;;;;;;;;;6159181;23;19916;-96
2023/01/17 14:30:02;;;;;;;;;;;;;;;;;;6160376;23;19923;-96
2023/01/17 14:32:29;;;;;;;;;;;;;;;;;;6160420;23;19947;-94
2023/01/17 14:34:56;;;;;;;;;;;;;;;;;;6158509;23;19956;-90
2023/01/17 14:37:22;;;;;;;;;;;;;;;;;;6158690;23;19927;-90
2023/01/17 14:39:47;;;;;;;;;;;;;;;;;;6158610;23;20295;-91
2023/01/17 14:42:13;;;;;;;;;;;;;;;;;;6158668;23;19996;-92
2023/01/17 14:44:39;;;;;;;;;;;;;;;;;;6159491;23;19916;-95
2023/01/17 14:47:05;;;;;;;;;;;;;;;;;;6158924;23;19924;-95
2023/01/17 14:52:16;;;;;;;;;;;;;;;;;;6183891;23;19920;-94
2023/01/17 14:54:42;;;;;;;;;;;;;;;;;;6159470;23;19927;-94
2023/01/17 14:57:08;;;;;;;;;;;;;;;;;;6158172;23;19939;-96
2023/01/17 14:59:34;;;;;;;;;;;;;;;;;;6158541;23;19917;-94
2023/01/17 15:02:00;;;;;;;;;;;;;;;;;;6183116;23;19943;-95
2023/01/17 15:04:26;;;;;;;;;;;;;;;;;;6158904;23;19916;-94
2023/01/17 15:06:52;;;;;;;;;;;;;;;;;;6159356;23;19916;-95
2023/01/17 15:09:18;;;;;;;;;;;;;;;;;;6160044;23;20003;-93
2023/01/17 15:11:44;;;;;;;;;;;;;;;;;;6158938;23;20342;-92
2023/01/17 15:14:10;;;;;;;;;;;;;;;;;;6158216;23;19916;-91
2023/01/17 15:16:36;;;;;;;;;;;;;;;;;;6158378;23;19948;-92
2023/01/17 15:19:02;;;;;;;;;;;;;;;;;;6182574;23;19960;-91
2023/01/17 15:21:27;;;;;;;;;;;;;;;;;;6158134;23;19960;-91
2023/01/17 15:23:53;;;;;;;;;;;;;;;;;;6158014;23;19948;-90
2023/01/17 15:26:19;;;;;;;;;;;;;;;;;;6158546;23;19966;-92
2023/01/17 15:28:46;;;;;;;;;;;;;;;;;;6156069;23;20258;-92
2023/01/17 15:31:12;;;;;;;;;;;;;;;;;;6158021;23;20304;-92
2023/01/17 15:33:38;;;;;;;;;;;;;;;;;;6183300;23;19955;-90
2023/01/17 15:36:04;;;;;;;;;;;;;;;;;;6157926;23;19944;-92
2023/01/17 15:38:37;;;;;;;;;;;;;;;;;;6183347;23;19917;-92
2023/01/17 15:41:03;;;;;;;;;;;;;;;;;;6157854;23;19947;-92
2023/01/17 15:43:30;;;;;;;;;;;;;;;;;;6158499;23;20335;-92
2023/01/17 15:45:56;;;;;;;;;;;;;;;;;;6158282;23;19916;-92
2023/01/17 15:48:22;;;;;;;;;;;;;;;;;;6158559;23;20204;-92
2023/01/17 15:50:48;;;;;;;;;;;;;;;;;;6158071;23;19917;-91
2023/01/17 15:53:14;;;;;;;;;;;;;;;;;;6158691;23;19924;-92
2023/01/17 15:55:40;;;;;;;;;;;;;;;;;;6183393;23;19921;-91
2023/01/17 15:58:05;;;;;;;;;;;;;;;;;;6158526;23;19916;-92
2023/01/17 16:00:36;;;;;;;;;;;;;;;;;;6157028;23;19935;-92
2023/01/17 16:03:02;;;;;;;;;;;;;;;;;;6157972;23;19916;-90
2023/01/17 16:05:29;;;;;;;;;;;;;;;;;;6158230;23;19961;-92
2023/01/17 16:07:55;;;;;;;;;;;;;;;;;;6158199;23;20295;-93
2023/01/17 16:10:21;;;;;;;;;;;;;;;;;;6157465;23;19943;-92
2023/01/17 16:12:47;;;;;;;;;;;;;;;;;;6158111;23;19927;-91
2023/01/17 16:15:13;;;;;;;;;;;;;;;;;;6157913;23;19928;-92
2023/01/17 16:17:39;;;;;;;;;;;;;;;;;;6158850;23;20385;-93
2023/01/17 16:20:08;;;;;;;;;;;;;;;;;;6159412;23;19927;-91
2023/01/17 16:22:34;;;;;;;;;;;;;;;;;;6160074;23;19924;-92
2023/01/17 16:25:00;;;;;;;;;;;;;;;;;;6185059;23;19916;-92
2023/01/17 16:27:25;;;;;;;;;;;;;;;;;;6185450;23;19924;-92
2023/01/17 16:29:51;;;;;;;;;;;;;;;;;;6159740;23;19921;-92
2023/01/17 16:32:17;;;;;;;;;;;;;;;;;;6160240;23;19954;-92
2023/01/17 16:34:43;;;;;;;;;;;;;;;;;;6185373;23;19920;-92
2023/01/17 16:37:09;;;;;;;;;;;;;;;;;;6160387;23;19916;-92
2023/01/17 16:39:35;;;;;;;;;;;;;;;;;;6160082;23;19916;-92
2023/01/17 16:42:04;;;;;;;;;;;;;;;;;;6160586;23;19920;-93
2023/01/17 16:44:32;;;;;;;;;;;;;;;;;;6160428;23;20397;-91
2023/01/17 16:46:58;;;;;;;;;;;;;;;;;;6160000;23;19982;-92
2023/01/17 16:49:24;;;;;;;;;;;;;;;;;;6159971;23;19917;-93
2023/01/17 16:51:50;;;;;;;;;;;;;;;;;;6159961;23;19916;-92
2023/01/17 16:54:16;;;;;;;;;;;;;;;;;;6160217;23;19916;-93
2023/01/17 16:56:42;;;;;;;;;;;;;;;;;;6160657;23;19948;-92
2023/01/17 16:59:08;;;;;;;;;;;;;;;;;;6161196;23;19924;-93
2023/01/17 17:01:34;;;;;;;;;;;;;;;;;;6160788;23;20326;-92
2023/01/17 17:04:01;;;;;;;;;;;;;;;;;;6160817;23;19916;-93
2023/01/17 17:06:27;;;;;;;;;;;;;;;;;;6160807;23;19924;-92
2023/01/17 17:08:53;;;;;;;;;;;;;;;;;;6185086;23;19962;-93
2023/01/17 17:11:19;;;;;;;;;;;;;;;;;;6160708;23;19917;-93
2023/01/17 17:13:45;;;;;;;;;;;;;;;;;;6160843;23;19923;-92
2023/01/17 17:16:11;;;;;;;;;;;;;;;;;;6160370;23;20250;-92
2023/01/17 17:18:36;;;;;;;;;;;;;;;;;;6160656;23;20323;-91
2023/01/17 17:21:02;;;;;;;;;;;;;;;;;;6160202;23;19916;-92
2023/01/17 17:23:28;;;;;;;;;;;;;;;;;;6160565;23;19916;-93
2023/01/17 17:25:54;;;;;;;;;;;;;;;;;;6160634;23;19916;-94
2023/01/17 17:30:56;;;;;;;;;;;;;;;;;;6184614;23;19916;-92
2023/01/17 17:33:22;;;;;;;;;;;;;;;;;;6185681;23;19939;-93
2023/01/17 17:35:48;;;;;;;;;;;;;;;;;;6185072;23;20023;-93
2023/01/17 17:38:14;;;;;;;;;;;;;;;;;;6160540;23;19923;-93
2023/01/17 17:40:40;;;;;;;;;;;;;;;;;;6159953;23;19924;-93
2023/01/17 17:43:06;;;;;;;;;;;;;;;;;;6160468;23;19916;-93
2023/01/17 17:45:31;;;;;;;;;;;;;;;;;;6160199;23;19920;-93
2023/01/17 17:47:57;;;;;;;;;;;;;;;;;;6185398;23;19982;-92
2023/01/17 17:50:23;;;;;;;;;;;;;;;;;;6184863;23;19920;-93
2023/01/17 17:52:49;;;;;;;;;;;;;;;;;;6160291;23;19955;-93
2023/01/17 17:55:17;;;;;;;;;;;;;;;;;;6160605;23;19921;-93
2023/01/17 17:57:43;;;;;;;;;;;;;;;;;;6184984;23;19921;-91
2023/01/17 18:00:09;;;;;;;;;;;;;;;;;;6184707;23;19927;-93
2023/01/17 18:02:35;;;;;;;;;;;;;;;;;;6160104;23;20426;-93
2023/01/17 18:05:01;;;;;;;;;;;;;;;;;;6160122;23;19966;-92
2023/01/17 18:07:27;;;;;;;;;;;;;;;;;;6185157;23;19916;-93
2023/01/17 18:09:53;;;;;;;;;;;;;;;;;;6159712;23;19916;-93
2023/01/17 18:12:19;;;;;;;;;;;;;;;;;;6160649;23;19916;-93